Terminal Aerodrome Forecast
Issued by NWS

Home | Current Version | Previous Version | Text Only | Print | Product List | Glossary On
Versions: 1 2 3 4 5 6 7 8 9 10 11 12 13 14 15 16 17
000
FTAK31 PANC 181743
TAFACD
TAF
PACD 181743Z 1818/1918 25011KT P6SM -SHRA OVC008
     FM190000 26012KT P6SM VCSH SCT008 OVC015
     FM190600 VRB03KT P6SM SCT015 BKN050=

USA.gov is the U.S. government's official web portal to all federal, state and local government web resources and services.